• Join FlightAware (Why Join?)
  • Login
  • US Flag 
01:11AM EDT


 

Airport Tracker/Info


-or-


 

Live Flight TrackerFlight Track Log ✈ N2385C ✈ 10-Sep-2013 ✈ 3A2 - KHAO

Flight Track Log - Related Links

Times and Time Zones

All times are in EDT time to prevent confusion due to time zone crossing. See the N2385C flight status page for this flight to view local times or setup timezone preferences in your user account.

Time Position Orientation Groundspeed Altitude Reporting Facility
EDT Latitude Longitude Course Direction KTS MPH feet Rate Location/Type
11:22AM 36.4656 -83.5464 346° North 49 56 2,900  Level Indianapolis Center
11:23AM 36.4961 -83.5542 348° North 102 117 3,400 420 Climbing Indianapolis Center
11:24AM 36.5228 -83.5597 350° North 101 116 3,800 420 Climbing Indianapolis Center
11:25AM 36.5497 -83.5678 346° North 99 114 4,300 480 Climbing Indianapolis Center
11:26AM 36.5772 -83.5800 340° North 101 116 4,800 420 Climbing Indianapolis Center
11:27AM 36.6033 -83.5900 343° North 100 115 5,200 420 Climbing Indianapolis Center
11:28AM 36.5864 -83.6129 346° North  Level Estimated
11:28AM 36.6369 -83.6003 346° North 102 117 5,700  Level Indianapolis Center
11:29AM 36.6656 -83.6069 349° North 104 120 6,000 120 Climbing Indianapolis Center
11:30AM 36.6986 -83.6192 343° North 114 131 6,000  Level Indianapolis Center
11:31AM 36.7358 -83.6297 347° North 128 147 6,000  Level Indianapolis Center
11:32AM 36.7717 -83.6397 347° North 131 151 6,000  Level Indianapolis Center
11:34AM 36.8047 -83.6508 345° North 126 145 6,000  Level Indianapolis Center
11:35AM 36.8442 -83.6619 347° North 125 144 6,000  Level Indianapolis Center
11:36AM 36.8778 -83.6725 346° North 124 143 6,000  Level Indianapolis Center
11:37AM 36.9119 -83.6844 344° North 125 144 6,000  Level Indianapolis Center
11:38AM 36.9469 -83.6942 347° North 127 146 6,000  Level Indianapolis Center
11:39AM 36.9808 -83.7056 345° North 127 146 6,000  Level Indianapolis Center
11:40AM 37.0153 -83.7167 346° North 127 146 6,000  Level Indianapolis Center
11:41AM 37.0486 -83.7294 343° North 126 145 6,000  Level Indianapolis Center
11:42AM 37.0847 -83.7411 346° North 130 150 6,000  Level Indianapolis Center
11:43AM 37.1269 -83.7553 345° North 133 153 6,000  Level Indianapolis Center
11:44AM 37.1622 -83.7672 345° North 133 153 6,000  Level Indianapolis Center
11:45AM 37.1986 -83.7803 344° North 134 154 6,000  Level Indianapolis Center
11:46AM 37.2339 -83.7931 344° North 132 152 6,000  Level Indianapolis Center
11:47AM 37.2697 -83.8072 343° North 134 154 6,000  Level Indianapolis Center
11:48AM 37.3058 -83.8197 345° North 135 155 6,000  Level Indianapolis Center
11:49AM 37.3411 -83.8317 345° North 132 152 6,000  Level Indianapolis Center
11:50AM 37.3831 -83.8469 344° North 133 153 6,000  Level Indianapolis Center
11:51AM 37.4194 -83.8586 346° North 134 154 6,000  Level Indianapolis Center
11:52AM 37.4561 -83.8689 347° North 135 155 6,000  Level Indianapolis Center
11:53AM 37.4931 -83.8803 346° North 135 155 6,000  Level Indianapolis Center
11:54AM 37.5289 -83.8931 344° North 135 155 6,000  Level Indianapolis Center
11:55AM 37.5656 -83.9044 346° North 135 155 6,000  Level Indianapolis Center
11:56AM 37.6025 -83.9169 345° North 136 157 6,000  Level Indianapolis Center
11:57AM 37.6389 -83.9286 346° North 136 157 6,100  Climbing Indianapolis Center
11:58AM 37.6806 -83.9433 344° North 135 155 6,000 -120 Descending Indianapolis Center
11:59AM 37.7178 -83.9556 345° North 135 155 5,900 -60 Descending Indianapolis Center
12:00PM 37.7533 -83.9683 344° North 135 155 5,900  Level Indianapolis Center
12:01PM 37.7894 -83.9825 343° North 135 155 6,000  Climbing Indianapolis Center
12:02PM 37.8267 -83.9944 346° North 136 157 5,900 -60 Descending Indianapolis Center
12:03PM 37.8617 -84.0072 344° North 133 153 5,900  Level Indianapolis Center
12:04PM 37.8983 -84.0194 345° North 135 155 5,900  Level Indianapolis Center
12:05PM 37.9397 -84.0347 344° North 133 153 5,900  Level Indianapolis Center
12:06PM 37.9753 -84.0458 346° North 132 152 6,000  Climbing Indianapolis Center
12:07PM 38.0111 -84.0578 345° North 133 153 5,900 -60 Descending Indianapolis Center
12:08PM 38.0486 -84.0694 346° North 135 155 5,900  Level Indianapolis Center
12:09PM 38.0850 -84.0811 346° North 135 155 5,900  Level Indianapolis Center
12:10PM 38.1217 -84.0939 345° North 135 155 5,900  Level Indianapolis Center
12:11PM 38.1578 -84.1058 345° North 135 155 5,900  Level Indianapolis Center
12:13PM 38.1947 -84.1178 346° North 136 157 5,900  Level Indianapolis Center
12:14PM 38.2367 -84.1317 345° North 134 154 5,900  Level Indianapolis Center
12:15PM 38.2728 -84.1447 344° North 134 154 5,900  Level Indianapolis Center
12:16PM 38.3086 -84.1569 345° North 133 153 6,000  Climbing Indianapolis Center
12:17PM 38.3436 -84.1700 344° North 132 152 6,000 -60 Level Indianapolis Center
12:18PM 38.3800 -84.1806 347° North 132 152 5,900  Descending Indianapolis Center
12:19PM 38.4147 -84.1939 343° North 131 151 6,000  Climbing Indianapolis Center
12:20PM 38.4544 -84.2092 343° North 129 148 6,000  Level Indianapolis Center
12:21PM 38.4900 -84.2206 346° North 130 150 6,000 -180 Level Indianapolis Center
12:22PM 38.5267 -84.2269 352° North 130 150 5,700 -420 Descending Indianapolis Center
12:23PM 38.5669 -84.2306 356° North 136 157 5,200 -540 Descending Indianapolis Center
12:24PM 38.6097 -84.2331 357° North 144 166 4,700 -540 Descending Indianapolis Center
12:25PM 38.6500 -84.2364 356° North 146 168 4,200 -360 Descending Indianapolis Center
12:26PM 38.6922 -84.2411 355° North 149 171 4,000 -120 Descending Indianapolis Center
12:27PM 38.7322 -84.2442 357° North 147 169 4,000  Level Indianapolis Center
12:28PM 38.7744 -84.2422 North 146 168 4,000  Level Indianapolis Center
12:29PM 38.8167 -84.2447 357° North 147 169 4,000  Level Indianapolis Center
12:31PM 38.9000 -84.2500 357° North 145 167 4,000  Level Cincinnati TRACON
12:32PM 38.9500 -84.2500 360° North 146 168 4,000  Level Cincinnati TRACON
12:33PM 38.9833 -84.2500 360° North 144 166 4,000 -180 Level Cincinnati TRACON
12:34PM 39.0333 -84.2667 345° North 144 166 3,700 -240 Descending Cincinnati TRACON
12:35PM 39.0667 -84.2667 360° North 144 166 3,500 -300 Descending Cincinnati TRACON
12:36PM 39.1167 -84.2667 360° North 142 163 3,100 -240 Descending Cincinnati TRACON
12:37PM 39.1500 -84.2833 339° North 147 169 3,000 -60 Descending Cincinnati TRACON
12:38PM 39.1833 -84.3000 339° North 136 157 3,000  Level Cincinnati TRACON
12:39PM 39.2167 -84.3333 322° Northwest 129 148 3,000  Level Cincinnati TRACON
12:40PM 39.2333 -84.3667 303° West 131 151 3,000  Level Cincinnati TRACON
12:41PM 39.2667 -84.4000 322° Northwest 133 153 3,000  Level Cincinnati TRACON
12:43PM 39.2930 -84.4526 303° West  Level FlightAware Approximate
12:50PM 39.3500 -84.5167 339° North  Level FlightAware Approximate
12:51PM 39.3638 -84.5219 339° North  Level Estimated
12:52PM 39.3638 -84.5219 339° North  Level Estimated